Tuesday, July 22, 2014
11:29 UTC
  |  Log In   |  Register Free
Airport Search:

Mccarley Fld Airport
(U02)

Mccarley Fld Airport Diagram
No Airport Diagram Available

FAA data valid effective May 29, 2014 until July 24, 2014 (unless otherwise noted).

 
 
 
 
 
 
 
 
 
 
 
 
 
 

Current Aviation Weather for Mccarley Fld Airport (U02)

The most recent METAR observation for KPIH was updated at: 0953 UTC
METAR Summary (Translated METAR)
KPIH
220953Z AUTO 22007KT 10SM CLR 17/12 A3022 RMK AO2 RAE0856 SLP182 P0000 T01670122
KIDA
(42.9 nm NE from KPIH)
220953Z AUTO 19003KT 10SM CLR 18/09 A3021 RMK AO2 SLP178 T01780094
TAF Summary (Translated TAF)
KPIH
220520Z 2206/2306 25008KT P6SM VCSH FEW080 BKN120 FM221000 VRB06KT P6SM SCT130 FM221800 22007KT P6SM FEW090 SCT180 FM230200 VRB05KT P6SM FEW180
KIDA
(42.9 nm NE from KPIH)
220520Z 2206/2306 19011KT P6SM VCSH SCT090 BKN120 FM221000 VRB05KT P6SM FEW100 BKN130 FM221800 23011KT P6SM FEW110 SCT180 FM230200 VRB04KT P6SM FEW180
  Airport Weather Conditions for U02

Current weather conditions are
not available for U02


The nearest NOAA weather station
is at PIH, (21 nm SW from U02)
  
 Current Weather at PIH
62° F
Fair
Southwest winds at 8.1 mph
PIH NOAA Radar

Pressure: 30.22 in
Humidity: 75%
Wind: Southwest at 8.1 MPH (7 KT)
Dew Point: 54.0°F
Visibility: 10.00 mi


Airport Weather Forecast for U02

Translated METAR and TAF for KPIH
Translated METAR for KPIH (1122 UTC 22 July 2014)
found at http://aviationweather.gov/adds/metars/
 
METAR text: KPIH 221053Z AUTO 18008KT 10SM CLR 15/11 A3022 RMK AO2 SLP186 T01500111
Conditions at: KPIH (POCATELLO , ID, US) observed 1053 UTC 22 July 2014
Temperature: 15.0°C (59°F)
Dewpoint: 11.1°C (52°F) [RH = 77%]
Pressure (altimeter): 30.22 inches Hg (1023.5 mb)
[Sea-level pressure: 1018.6 mb]
Winds: from the S (180 degrees) at 9 MPH (8 knots; 4.2 m/s)
Visibility: 10 or more miles (16+ km)
Ceiling: at least 12,000 feet AGL
Clouds: sky clear below 12,000 feet AGL
Weather: automated observation with no human augmentation;
there may or may not be significant weather present at this time
Translated TAF for KPIH
Forecast for: KPIH (POCATELLO , ID, US)
TAF Text: KPIH 221120Z 2212/2312 20007KT P6SM SCT200
Forecast period: 1200 to 1800 UTC 22 July 2014
Forecast type: FROM: standard forecast or significant change
Winds: from the SSW (200 degrees) at 8 MPH (7 knots; 3.6 m/s)
Visibility: 6 or more miles (10+ km)
Clouds: scattered clouds at 20000 feet AGL
Weather: no significant weather forecast for this period
TAF Text: FM221800 24007KT P6SM FEW100 SCT200
Forecast period: 1800 UTC 22 July 2014 to 0300 UTC 23 July 2014
Forecast type: FROM: standard forecast or significant change
Winds: from the WSW (240 degrees) at 8 MPH (7 knots; 3.6 m/s)
Visibility: 6 or more miles (10+ km)
Clouds: few clouds at 10000 feet AGL
scattered clouds at 20000 feet AGL
Weather: no significant weather forecast for this period
TAF Text: FM230300 VRB05KT P6SM SKC
Forecast period: 0300 to 1200 UTC 23 July 2014
Forecast type: FROM: standard forecast or significant change
Winds: variable direction winds at 6 MPH (5 knots; 2.6 m/s)
Visibility: 6 or more miles (10+ km)
Clouds: clear skies
Weather: no significant weather forecast for this period

Find All Airport Services Find A Hotel Find A Rental Car Find A Golf Course Find A Restaurant $100 Hamburger



FBO's on the Field
FBO Company Facility Photos Services Transportation Aviation Fuel Prices: Prices include tax
Catering Weather Repair Courtesy Rental Type 100LL JetA JetA+ MOGAS 8087
 
Add another FBO Facility Photos Catering Weather Repair Courtesy Rental Type 100LL JetA JetA+ MOGAS 8087
Services Transportation Aviation Fuel Prices: Prices include tax
There are no FBO's currently reporting fuel at U02. List your FBO now


GlobalAir.com Airport Resource Center model-print
model-print
model-print
model-print